Time;durP1;ratioP1;P1;durP2;ratioP2;P2;SDS_P1;SDS_P2;PMS_P1;PMS_P2;Temp;Humidity;BMP_temperature;BMP_pressure;BME280_temperature;BME280_humidity;BME280_pressure;Samples;Min_cycle;Max_cycle;Signal;HPM_P1;HPM_P2
2022/10/05 00:00:15;;;;;;;13.38;7.70;;;15.60;99.90;;;;;;5055582;28;20111;-48
2022/10/05 00:02:42;;;;;;;13.90;7.70;;;15.60;99.90;;;;;;5051437;28;20102;-45
2022/10/05 00:05:18;;;;;;;14.77;7.90;;;15.60;99.90;;;;;;5052929;28;20106;-46
2022/10/05 00:07:45;;;;;;;10.77;6.63;;;15.60;99.90;;;;;;5051316;28;20162;-43
2022/10/05 00:10:14;;;;;;;14.18;7.75;;;15.60;99.90;;;;;;5067588;28;20392;-43
2022/10/05 00:12:43;;;;;;;14.63;7.15;;;15.60;99.90;;;;;;5054084;28;20080;-43
2022/10/05 00:15:11;;;;;;;12.32;6.93;;;15.60;99.90;;;;;;5053061;28;20095;-46
2022/10/05 00:17:38;;;;;;;11.57;7.13;;;15.60;99.90;;;;;;5053271;28;20048;-42
2022/10/05 00:20:16;;;;;;;12.75;6.72;;;15.60;99.90;;;;;;5052894;28;20469;-44
2022/10/05 00:22:43;;;;;;;14.95;7.07;;;15.60;99.90;;;;;;5052295;28;20107;-47
2022/10/05 00:25:12;;;;;;;14.02;6.47;;;15.60;99.90;;;;;;5059499;28;20053;-46
2022/10/05 00:27:39;;;;;;;10.27;5.90;;;15.60;99.90;;;;;;5053491;28;20095;-45
2022/10/05 00:30:13;;;;;;;10.73;6.22;;;15.60;99.90;;;;;;5050672;28;20041;-45
2022/10/05 00:32:40;;;;;;;9.45;6.05;;;15.60;99.90;;;;;;5051796;28;20102;-45
2022/10/05 00:35:07;;;;;;;9.32;5.40;;;15.60;99.90;;;;;;5069065;28;20049;-44
2022/10/05 00:37:34;;;;;;;9.18;5.05;;;15.60;99.90;;;;;;5058825;28;20098;-45
2022/10/05 00:40:01;;;;;;;10.32;5.25;;;15.60;99.90;;;;;;5072979;28;20071;-42
2022/10/05 00:42:36;;;;;;;11.52;5.55;;;15.60;99.90;;;;;;5072646;28;20435;-45
2022/10/05 00:45:04;;;;;;;10.15;5.15;;;15.60;99.90;;;;;;5064633;28;20497;-43
2022/10/05 00:47:39;;;;;;;10.98;5.63;;;15.60;99.90;;;;;;5051944;28;20107;-44
2022/10/05 00:50:37;;;;;;;11.93;5.40;;;15.60;99.90;;;;;;5042761;28;20130;-45
2022/10/05 00:53:08;;;;;;;11.23;5.85;;;15.60;99.90;;;;;;5039759;28;20049;-45
2022/10/05 00:55:40;;;;;;;8.70;4.75;;;15.60;99.90;;;;;;5051809;28;20090;-45
2022/10/05 00:58:10;;;;;;;;;;;15.60;99.90;;;;;;5051480;28;20075;-46
2022/10/05 01:00:39;;;;;;;11.13;5.18;;;15.60;99.90;;;;;;5051362;28;19970;-40
2022/10/05 01:03:10;;;;;;;9.55;5.93;;;15.60;99.90;;;;;;5049694;28;20382;-46
2022/10/05 01:05:47;;;;;;;9.50;5.05;;;15.60;99.90;;;;;;5052208;28;20044;-45
2022/10/05 01:08:19;;;;;;;10.63;5.68;;;15.60;99.90;;;;;;5051233;28;20123;-45
2022/10/05 01:10:48;;;;;;;7.68;5.85;;;15.60;99.90;;;;;;5050386;28;20045;-46
2022/10/05 01:13:18;;;;;;;8.02;5.80;;;15.60;99.90;;;;;;5038171;28;20045;-46
2022/10/05 01:15:49;;;;;;;8.95;6.13;;;15.60;99.90;;;;;;5051430;28;20076;-47
2022/10/05 01:18:18;;;;;;;11.95;6.85;;;15.60;99.90;;;;;;5050860;28;20099;-46
2022/10/05 01:20:52;;;;;;;17.48;7.30;;;15.60;99.90;;;;;;5050896;28;20056;-45
2022/10/05 01:23:48;;;;;;;11.07;6.88;;;15.60;99.90;;;;;;5049923;28;20053;-48
2022/10/05 01:26:57;;;;;;;12.68;7.20;;;15.60;99.90;;;;;;5044280;28;20485;-48
2022/10/05 01:29:27;;;;;;;10.85;6.95;;;15.60;99.90;;;;;;5037074;28;20041;-45
2022/10/05 01:31:56;;;;;;;13.38;7.53;;;15.60;99.90;;;;;;5048695;28;20052;-45
2022/10/05 01:34:26;;;;;;;13.90;7.70;;;15.50;99.90;;;;;;5049776;28;20107;-46
2022/10/05 01:36:57;;;;;;;14.95;7.70;;;15.60;99.90;;;;;;5051114;28;20080;-48
2022/10/05 01:39:26;;;;;;;11.45;7.95;;;15.50;99.90;;;;;;5049528;28;20593;-47
2022/10/05 01:41:55;;;;;;;12.57;7.30;;;15.60;99.90;;;;;;5050761;28;20088;-46
2022/10/05 01:44:26;;;;;;;11.70;7.15;;;15.50;99.90;;;;;;5051750;28;20056;-47
2022/10/05 01:46:55;;;;;;;14.65;7.75;;;15.50;99.90;;;;;;5051081;28;20076;-48
2022/10/05 01:49:35;;;;;;;12.90;7.65;;;15.50;99.90;;;;;;5050968;28;20045;-48
2022/10/05 01:52:11;;;;;;;12.30;7.85;;;15.50;99.90;;;;;;5051717;28;20057;-45
2022/10/05 01:54:44;;;;;;;13.40;7.65;;;15.50;99.90;;;;;;5054047;28;20095;-46
2022/10/05 01:57:15;;;;;;;12.05;7.78;;;15.50;99.90;;;;;;5052745;28;20138;-46
2022/10/05 01:59:51;;;;;;;17.33;8.82;;;15.50;99.90;;;;;;5047847;28;20049;-47
2022/10/05 02:02:19;;;;;;;14.55;8.52;;;15.50;99.90;;;;;;5050820;28;20053;-44
2022/10/05 02:04:47;;;;;;;13.50;8.73;;;15.50;99.90;;;;;;5050015;28;20052;-49
2022/10/05 02:07:16;;;;;;;13.90;9.13;;;15.50;99.90;;;;;;5052161;28;20045;-46
2022/10/05 02:09:45;;;;;;;15.15;8.30;;;15.50;99.90;;;;;;5049123;28;20059;-46
2022/10/05 02:12:13;;;;;;;13.45;7.80;;;15.50;99.90;;;;;;5050592;28;20118;-45
2022/10/05 02:14:42;;;;;;;14.13;8.23;;;15.50;99.90;;;;;;5051153;28;20061;-45
2022/10/05 02:17:12;;;;;;;14.68;9.07;;;15.50;99.90;;;;;;5051723;28;20448;-46
2022/10/05 02:19:40;;;;;;;15.87;8.37;;;15.40;99.90;;;;;;5051036;28;20404;-44
2022/10/05 02:22:08;;;;;;;18.33;8.88;;;15.40;99.90;;;;;;5050636;28;20484;-46
2022/10/05 02:24:37;;;;;;;15.30;8.70;;;15.40;99.90;;;;;;5051329;28;20077;-46
2022/10/05 02:27:04;;;;;;;13.20;9.20;;;15.40;99.90;;;;;;5051911;28;20437;-44
2022/10/05 02:29:31;;;;;;;14.35;8.35;;;15.40;99.90;;;;;;5049809;28;20048;-46
2022/10/05 02:32:00;;;;;;;13.13;7.65;;;15.40;99.90;;;;;;5051147;28;20052;-48
2022/10/05 02:34:29;;;;;;;16.70;8.95;;;15.40;99.90;;;;;;5047190;28;20057;-46
2022/10/05 02:37:05;;;;;;;14.27;8.65;;;15.30;99.90;;;;;;5053690;28;20489;-46
2022/10/05 02:39:35;;;;;;;17.02;8.27;;;15.30;99.90;;;;;;5051454;28;20057;-44
2022/10/05 02:42:04;;;;;;;15.10;8.07;;;15.40;99.90;;;;;;5050139;28;20049;-46
2022/10/05 02:44:34;;;;;;;12.52;7.90;;;15.40;99.90;;;;;;5048608;28;20053;-45
2022/10/05 02:47:04;;;;;;;14.90;8.60;;;15.30;99.90;;;;;;5051458;28;20114;-45
2022/10/05 02:49:35;;;;;;;13.43;9.13;;;15.30;99.90;;;;;;5050633;28;20057;-46
2022/10/05 02:52:04;;;;;;;13.27;9.20;;;15.30;99.90;;;;;;5048484;28;20079;-45
2022/10/05 02:54:38;;;;;;;14.45;8.82;;;15.30;99.90;;;;;;5048136;28;20075;-45
2022/10/05 02:57:10;;;;;;;14.00;8.30;;;15.30;99.90;;;;;;5049933;28;20048;-47
2022/10/05 02:59:38;;;;;;;10.07;7.85;;;15.30;99.90;;;;;;5051457;28;20073;-45
2022/10/05 03:02:11;;;;;;;13.63;9.00;;;15.30;99.90;;;;;;5051216;28;20132;-50
2022/10/05 03:04:40;;;;;;;12.63;8.35;;;15.30;99.90;;;;;;5040825;28;20549;-46
2022/10/05 03:07:12;;;;;;;16.52;8.82;;;15.30;99.90;;;;;;5050877;28;20056;-45
2022/10/05 03:09:41;;;;;;;10.93;8.55;;;15.30;99.90;;;;;;5047398;28;20051;-45
2022/10/05 03:12:12;;;;;;;13.40;8.05;;;15.30;99.90;;;;;;5052135;28;20052;-45
2022/10/05 03:14:42;;;;;;;10.63;8.20;;;15.30;99.90;;;;;;5049628;28;20469;-44
2022/10/05 03:17:10;;;;;;;12.40;7.95;;;15.30;99.90;;;;;;5052363;28;20080;-46
2022/10/05 03:19:53;;;;;;;13.93;8.18;;;15.30;99.90;;;;;;5069026;28;20499;-42
2022/10/05 03:22:24;;;;;;;12.73;8.05;;;15.30;99.90;;;;;;5046047;28;20044;-45
2022/10/05 03:25:00;;;;;;;17.70;8.18;;;15.20;99.90;;;;;;5052030;28;20056;-49
2022/10/05 03:27:32;;;;;;;12.23;7.38;;;15.30;99.90;;;;;;5054379;28;20037;-47
2022/10/05 03:30:03;;;;;;;24.88;7.95;;;15.30;99.90;;;;;;5048455;28;20107;-44
2022/10/05 03:32:34;;;;;;;14.57;7.38;;;15.30;99.90;;;;;;5056032;28;20049;-44
2022/10/05 03:35:05;;;;;;;13.75;7.82;;;15.30;99.90;;;;;;5065379;28;20045;-47
2022/10/05 03:37:34;;;;;;;10.68;7.25;;;15.30;99.90;;;;;;5054055;28;20045;-46
2022/10/05 03:40:03;;;;;;;11.25;6.72;;;15.30;99.90;;;;;;5053350;28;20061;-46
2022/10/05 03:42:32;;;;;;;10.48;7.57;;;15.30;99.90;;;;;;5053035;28;20060;-44
2022/10/05 03:45:00;;;;;;;14.88;7.68;;;15.20;99.90;;;;;;5053356;28;20049;-47
2022/10/05 03:47:31;;;;;;;14.07;7.82;;;15.30;99.90;;;;;;5049833;28;20041;-44
2022/10/05 03:50:20;;;;;;;15.52;7.82;;;15.20;99.90;;;;;;5051855;28;20053;-46
2022/10/05 03:52:48;;;;;;;15.55;7.45;;;15.20;99.90;;;;;;5042608;28;20053;-50
2022/10/05 03:55:19;;;;;;;13.90;7.80;;;15.20;99.90;;;;;;5055952;28;20053;-45
2022/10/05 03:57:46;;;;;;;11.80;7.05;;;15.20;99.90;;;;;;5046314;28;20562;-43
2022/10/05 04:00:14;;;;;;;13.57;7.55;;;15.20;99.90;;;;;;5052533;28;20744;-41
2022/10/05 04:02:43;;;;;;;11.52;7.22;;;15.20;99.90;;;;;;5051326;28;20061;-39
2022/10/05 04:05:13;;;;;;;11.45;7.15;;;15.20;99.90;;;;;;5045069;28;20449;-46
2022/10/05 04:07:45;;;;;;;12.27;7.70;;;15.20;99.90;;;;;;5048461;28;20481;-44
2022/10/05 04:10:13;;;;;;;;;;;15.20;99.90;;;;;;5046556;28;20056;-44
2022/10/05 04:12:40;;;;;;;14.45;8.52;;;15.20;99.90;;;;;;5051136;28;19975;-41
2022/10/05 04:15:13;;;;;;;12.32;7.80;;;15.20;99.90;;;;;;5059894;28;20095;-49
2022/10/05 04:17:42;;;;;;;13.68;8.30;;;15.20;99.90;;;;;;5067451;28;20118;-45
2022/10/05 04:20:16;;;;;;;13.85;8.38;;;15.20;99.90;;;;;;5049098;28;20204;-45
2022/10/05 04:22:47;;;;;;;14.75;8.18;;;15.20;99.90;;;;;;5050898;28;20076;-45
2022/10/05 04:25:15;;;;;;;12.63;9.00;;;15.20;99.90;;;;;;5052754;28;20095;-46
2022/10/05 04:27:44;;;;;;;12.65;8.98;;;15.10;99.90;;;;;;5035414;28;20084;-48
2022/10/05 04:30:12;;;;;;;14.18;9.30;;;15.10;99.90;;;;;;5049669;28;20114;-45
2022/10/05 04:32:41;;;;;;;12.57;8.63;;;15.10;99.90;;;;;;5048934;28;20555;-46
2022/10/05 04:35:31;;;;;;;11.95;8.55;;;15.10;99.90;;;;;;5050124;28;20049;-49
2022/10/05 04:38:05;;;;;;;12.48;8.75;;;15.10;99.90;;;;;;5050648;28;20045;-44
2022/10/05 04:40:39;;;;;;;10.98;8.50;;;15.10;99.90;;;;;;5050296;28;20382;-48
2022/10/05 04:43:09;;;;;;;15.15;9.38;;;15.10;99.90;;;;;;5052191;28;20144;-49
2022/10/05 04:45:44;;;;;;;12.68;8.70;;;15.10;99.90;;;;;;5056667;28;20094;-47
2022/10/05 04:48:39;;;;;;;12.27;8.45;;;15.10;99.90;;;;;;5053394;28;20133;-47
2022/10/05 04:51:26;;;;;;;13.52;8.30;;;15.10;99.90;;;;;;5038945;28;20051;-46
2022/10/05 04:53:56;;;;;;;17.48;8.77;;;15.10;99.90;;;;;;5061757;28;20082;-46
2022/10/05 04:56:27;;;;;;;11.35;8.00;;;15.10;99.90;;;;;;5067333;28;20133;-46
2022/10/05 04:59:06;;;;;;;14.35;8.40;;;15.10;99.90;;;;;;5049577;28;20049;-45
2022/10/05 05:01:41;;;;;;;13.98;8.18;;;15.10;99.90;;;;;;5045136;28;20045;-46
2022/10/05 05:04:20;;;;;;;14.68;8.38;;;15.10;99.90;;;;;;5052642;28;20106;-45
2022/10/05 05:06:50;;;;;;;12.05;8.70;;;15.10;99.90;;;;;;5053895;28;20379;-49
2022/10/05 05:09:49;;;;;;;11.27;8.20;;;15.10;99.90;;;;;;5051345;28;20049;-44
2022/10/05 05:12:20;;;;;;;13.75;8.13;;;15.10;99.90;;;;;;5068736;28;20458;-48
2022/10/05 05:15:09;;;;;;;16.05;9.07;;;15.10;99.90;;;;;;5052919;28;20084;-45
2022/10/05 05:17:48;;;;;;;12.30;8.45;;;15.10;99.90;;;;;;5049338;28;20492;-47
2022/10/05 05:20:20;;;;;;;13.57;8.93;;;15.00;99.90;;;;;;5053551;28;20053;-48
2022/10/05 05:22:48;;;;;;;15.82;9.00;;;15.10;99.90;;;;;;5048828;28;20068;-47
2022/10/05 05:25:25;;;;;;;17.60;9.93;;;15.00;99.90;;;;;;5052857;28;20084;-47
2022/10/05 05:27:53;;;;;;;12.02;8.93;;;15.00;99.90;;;;;;5060911;28;20056;-49
2022/10/05 05:30:21;;;;;;;12.95;8.57;;;15.00;99.90;;;;;;5057192;28;20048;-48
2022/10/05 05:33:05;;;;;;;13.13;8.23;;;15.00;99.90;;;;;;5055298;28;20507;-46
2022/10/05 05:35:45;;;;;;;12.77;8.85;;;15.00;99.90;;;;;;5051984;28;20270;-49
2022/10/05 05:38:20;;;;;;;16.95;9.15;;;15.00;99.90;;;;;;5052674;28;20136;-46
2022/10/05 05:40:50;;;;;;;15.07;9.23;;;15.00;99.90;;;;;;5060372;28;20079;-44
2022/10/05 05:43:23;;;;;;;19.55;9.52;;;15.00;99.90;;;;;;5036727;28;20057;-50
2022/10/05 05:45:53;;;;;;;14.57;9.20;;;15.00;99.90;;;;;;5058755;28;20036;-42
2022/10/05 05:48:22;;;;;;;13.77;9.32;;;14.90;99.90;;;;;;5048742;28;20076;-49
2022/10/05 05:50:49;;;;;;;14.48;9.98;;;15.00;99.90;;;;;;5050517;28;20049;-46
2022/10/05 05:53:18;;;;;;;14.43;9.55;;;14.90;99.90;;;;;;5049994;28;20049;-47
2022/10/05 05:55:46;;;;;;;15.93;9.80;;;14.90;99.90;;;;;;5051161;28;20053;-46
2022/10/05 05:58:19;;;;;;;16.67;9.10;;;14.90;99.90;;;;;;5051595;28;20114;-49
2022/10/05 06:00:48;;;;;;;13.27;9.45;;;14.90;99.90;;;;;;5050932;28;20057;-46
2022/10/05 06:03:16;;;;;;;18.80;10.40;;;14.90;99.90;;;;;;5046430;28;20080;-46
2022/10/05 06:05:44;;;;;;;16.35;9.98;;;14.90;99.90;;;;;;5051258;28;20048;-43
2022/10/05 06:08:15;;;;;;;14.30;9.35;;;14.90;99.90;;;;;;5049779;28;20566;-46
2022/10/05 06:10:43;;;;;;;15.25;9.52;;;14.90;99.90;;;;;;5052768;28;20050;-45
2022/10/05 06:13:15;;;;;;;15.95;9.40;;;14.90;99.90;;;;;;5068398;28;20049;-44
2022/10/05 06:15:46;;;;;;;13.57;9.70;;;14.90;99.90;;;;;;5051339;28;20053;-49
2022/10/05 06:18:14;;;;;;;17.35;10.85;;;14.90;99.90;;;;;;5052479;28;20106;-49
2022/10/05 06:20:42;;;;;;;15.27;9.40;;;14.90;99.90;;;;;;5052337;28;20485;-48
2022/10/05 06:23:13;;;;;;;16.45;9.65;;;14.90;99.90;;;;;;5051662;28;20073;-48
2022/10/05 06:25:44;;;;;;;12.00;8.77;;;14.90;99.90;;;;;;5051568;28;20056;-48
2022/10/05 06:28:11;;;;;;;17.02;9.82;;;14.90;99.90;;;;;;5051664;28;20057;-46
2022/10/05 06:30:48;;;;;;;15.98;9.13;;;14.90;99.90;;;;;;5050646;28;20072;-49
2022/10/05 06:33:23;;;;;;;15.52;9.60;;;14.90;99.90;;;;;;5067889;28;20056;-49
2022/10/05 06:35:56;;;;;;;14.00;9.20;;;14.90;99.90;;;;;;5052536;28;20080;-49
2022/10/05 06:38:40;;;;;;;13.45;8.82;;;15.00;99.90;;;;;;5067967;28;20456;-45
2022/10/05 06:41:11;;;;;;;11.85;8.35;;;15.00;99.90;;;;;;5052253;28;20095;-45
2022/10/05 06:43:47;;;;;;;12.52;8.00;;;15.00;99.90;;;;;;5051295;28;20128;-48
2022/10/05 06:46:18;;;;;;;11.57;9.00;;;15.00;99.90;;;;;;5052517;28;20053;-44
2022/10/05 06:48:52;;;;;;;11.30;8.15;;;15.00;99.90;;;;;;5051661;28;20057;-44
2022/10/05 06:51:22;;;;;;;13.68;7.82;;;15.00;99.90;;;;;;5051278;28;20106;-43
2022/10/05 06:53:55;;;;;;;15.75;8.60;;;15.00;99.90;;;;;;5055333;28;20135;-48
2022/10/05 06:56:26;;;;;;;10.30;8.18;;;15.00;99.90;;;;;;5055124;28;20061;-44
2022/10/05 06:58:55;;;;;;;12.02;8.38;;;15.00;99.90;;;;;;5056184;28;20088;-45
2022/10/05 07:01:35;;;;;;;13.50;7.80;;;15.00;99.90;;;;;;5055071;28;20103;-46
2022/10/05 07:04:09;;;;;;;10.95;7.60;;;15.00;99.90;;;;;;5054818;28;20091;-45
2022/10/05 07:06:37;;;;;;;9.25;7.45;;;15.00;99.90;;;;;;5055991;28;20227;-45
2022/10/05 07:09:18;;;;;;;9.02;7.15;;;15.10;99.90;;;;;;5055731;28;20061;-45
2022/10/05 07:11:53;;;;;;;11.10;7.30;;;15.10;99.90;;;;;;5056036;28;20099;-47
2022/10/05 07:14:25;;;;;;;10.60;7.32;;;15.10;99.90;;;;;;5054757;28;20081;-46
2022/10/05 07:17:03;;;;;;;7.90;6.40;;;15.10;99.90;;;;;;5054941;28;20053;-46
2022/10/05 07:19:34;;;;;;;9.73;6.50;;;15.10;99.90;;;;;;5054692;28;20045;-46
2022/10/05 07:22:22;;;;;;;7.18;6.07;;;15.10;99.90;;;;;;5055913;28;20091;-44
2022/10/05 07:24:57;;;;;;;7.53;5.30;;;15.20;99.90;;;;;;5055736;28;20049;-46
2022/10/05 07:27:24;;;;;;;11.40;5.70;;;15.20;99.90;;;;;;5054693;28;20084;-48
2022/10/05 07:29:52;;;;;;;8.02;5.57;;;15.20;99.90;;;;;;5055383;28;20049;-44
2022/10/05 07:32:32;;;;;;;10.63;5.65;;;15.20;99.90;;;;;;5071195;28;20560;-47
2022/10/05 07:35:01;;;;;;;7.32;5.25;;;15.30;99.90;;;;;;5055060;28;20095;-48
2022/10/05 07:40:27;;;;;;;9.57;6.18;;;15.30;99.90;;;;;;5019221;28;20142;-45
2022/10/05 07:43:06;;;;;;;12.05;6.78;;;15.30;99.90;;;;;;5070560;28;20052;-45
2022/10/05 07:45:37;;;;;;;10.00;6.90;;;15.30;99.90;;;;;;5055484;28;20084;-46
2022/10/05 07:48:11;;;;;;;10.93;6.80;;;15.40;99.90;;;;;;5055341;28;20049;-44
2022/10/05 07:50:40;;;;;;;11.57;7.25;;;15.40;99.90;;;;;;5048196;28;20183;-45
2022/10/05 07:53:11;;;;;;;13.98;7.57;;;15.30;99.90;;;;;;5053923;28;20084;-45
2022/10/05 07:55:40;;;;;;;14.88;7.32;;;15.40;99.90;;;;;;5054379;28;20090;-45
2022/10/05 07:58:11;;;;;;;9.15;7.07;;;15.40;99.90;;;;;;5055001;28;20041;-45
2022/10/05 08:00:47;;;;;;;11.93;7.88;;;15.40;99.90;;;;;;5053085;28;20049;-44
2022/10/05 08:03:18;;;;;;;10.75;7.20;;;15.40;99.90;;;;;;5052906;28;20095;-48
2022/10/05 08:05:45;;;;;;;9.45;6.95;;;15.40;99.90;;;;;;5054049;28;20137;-48
2022/10/05 08:08:16;;;;;;;8.82;7.18;;;15.50;99.90;;;;;;5054872;28;20049;-45
2022/10/05 08:10:46;;;;;;;14.40;8.13;;;15.60;99.90;;;;;;5054345;28;20077;-49
2022/10/05 08:13:16;;;;;;;11.38;7.70;;;15.60;99.90;;;;;;5053653;28;20088;-50
2022/10/05 08:15:46;;;;;;;12.18;7.28;;;15.60;99.90;;;;;;5053654;28;20102;-49
2022/10/05 08:18:18;;;;;;;10.93;7.40;;;15.60;99.90;;;;;;5053488;28;20092;-46
2022/10/05 08:20:46;;;;;;;10.50;7.40;;;15.70;99.90;;;;;;5054027;28;20106;-47
2022/10/05 08:23:19;;;;;;;12.15;7.38;;;15.80;99.90;;;;;;5054896;28;20088;-47
2022/10/05 08:25:50;;;;;;;10.68;6.72;;;15.80;99.90;;;;;;5054819;28;20061;-47
2022/10/05 08:28:19;;;;;;;11.63;7.03;;;15.90;99.90;;;;;;5052740;28;20439;-47
2022/10/05 08:30:52;;;;;;;7.95;6.50;;;15.90;99.90;;;;;;5054205;28;20053;-46
2022/10/05 08:33:20;;;;;;;10.32;6.63;;;16.00;99.90;;;;;;5054398;28;20071;-50
2022/10/05 08:35:50;;;;;;;14.15;7.78;;;16.00;99.90;;;;;;5054375;28;20098;-49
2022/10/05 08:38:18;;;;;;;13.85;6.68;;;16.00;99.90;;;;;;5054318;28;20091;-48
2022/10/05 08:41:21;;;;;;;14.30;6.53;;;16.10;99.90;;;;;;5054250;28;20454;-50
2022/10/05 08:44:24;;;;;;;7.78;6.60;;;16.10;99.90;;;;;;5053235;28;20171;-49
2022/10/05 08:47:17;;;;;;;9.68;6.43;;;16.10;99.90;;;;;;5038931;28;20098;-45
2022/10/05 08:50:05;;;;;;;9.93;6.38;;;16.20;99.90;;;;;;5050447;28;20055;-46
2022/10/05 08:52:32;;;;;;;13.50;7.38;;;16.20;99.90;;;;;;5049723;28;20388;-47
2022/10/05 08:55:29;;;;;;;11.15;7.00;;;16.20;99.90;;;;;;5033187;28;20436;-49
2022/10/05 08:58:12;;;;;;;12.55;6.22;;;16.20;99.90;;;;;;5016643;28;20056;-46
2022/10/05 09:00:42;;;;;;;9.73;6.40;;;16.30;99.90;;;;;;5034521;28;20061;-47
2022/10/05 09:03:19;;;;;;;9.00;6.15;;;16.20;99.90;;;;;;5053892;28;20088;-45
2022/10/05 09:06:19;;;;;;;8.40;6.35;;;16.30;99.90;;;;;;5053902;28;20060;-44
2022/10/05 09:09:22;;;;;;;9.23;5.70;;;16.30;99.90;;;;;;5049019;28;20485;-47
2022/10/05 09:12:00;;;;;;;10.35;6.18;;;16.40;99.90;;;;;;5045317;28;20466;-46
2022/10/05 09:14:32;;;;;;;7.00;5.15;;;16.40;99.90;;;;;;5053038;28;20504;-45
2022/10/05 09:17:20;;;;;;;6.25;5.25;;;16.40;99.90;;;;;;5052264;28;20140;-45
2022/10/05 09:20:10;;;;;;;8.10;4.95;;;16.50;99.90;;;;;;5051817;28;20489;-45
2022/10/05 09:22:44;;;;;;;5.45;4.50;;;16.40;99.90;;;;;;5053576;28;20132;-49
2022/10/05 09:25:17;;;;;;;5.43;4.25;;;16.40;99.90;;;;;;5069070;28;20440;-46
2022/10/05 09:27:51;;;;;;;5.30;4.03;;;16.50;99.90;;;;;;5052554;28;20055;-48
2022/10/05 09:30:28;;;;;;;6.20;4.13;;;16.60;99.90;;;;;;5052573;28;20080;-45
2022/10/05 09:33:30;;;;;;;9.73;3.83;;;16.60;99.90;;;;;;5052076;28;20057;-48
2022/10/05 09:36:29;;;;;;;5.10;4.18;;;16.70;99.90;;;;;;5068487;28;20053;-48
2022/10/05 09:39:21;;;;;;;7.95;3.85;;;16.70;99.90;;;;;;5052384;28;20374;-48
2022/10/05 09:42:07;;;;;;;6.60;4.22;;;16.70;99.90;;;;;;5051662;28;20122;-45
2022/10/05 09:44:54;;;;;;;6.75;3.75;;;16.70;99.90;;;;;;5052989;28;20484;-45
2022/10/05 09:47:45;;;;;;;8.30;3.72;;;16.80;99.90;;;;;;5052105;28;20106;-47
2022/10/05 09:50:28;;;;;;;5.63;3.70;;;16.80;99.90;;;;;;5048310;28;20061;-48
2022/10/05 09:53:22;;;;;;;6.03;3.55;;;16.80;99.90;;;;;;5033236;28;20045;-44
2022/10/05 09:56:05;;;;;;;6.82;3.47;;;16.80;99.90;;;;;;5032947;28;20081;-48
2022/10/05 09:59:06;;;;;;;7.93;4.07;;;16.80;99.90;;;;;;5050883;28;20048;-46
2022/10/05 10:01:58;;;;;;;5.38;3.78;;;16.80;99.90;;;;;;5052921;28;20048;-49
2022/10/05 10:04:37;;;;;;;7.75;3.88;;;16.80;99.90;;;;;;5048102;28;20052;-47
2022/10/05 10:07:25;;;;;;;7.32;3.80;;;16.80;99.90;;;;;;5051720;28;20095;-46
2022/10/05 10:10:13;;;;;;;6.13;3.80;;;16.80;99.90;;;;;;5052969;28;20088;-49
2022/10/05 10:12:47;;;;;;;6.50;4.15;;;16.80;99.90;;;;;;5051767;28;20056;-46
2022/10/05 10:15:29;;;;;;;6.45;4.15;;;16.80;99.90;;;;;;5052544;28;20137;-49
2022/10/05 10:18:08;;;;;;;5.40;3.72;;;16.80;99.90;;;;;;5052319;28;20448;-49
2022/10/05 10:20:51;;;;;;;5.95;3.80;;;16.80;99.90;;;;;;5051638;28;20053;-49
2022/10/05 10:23:27;;;;;;;5.97;3.22;;;16.80;99.90;;;;;;5051535;28;20053;-47
2022/10/05 10:26:33;;;;;;;7.88;4.20;;;16.90;99.90;;;;;;5050571;28;20071;-46
2022/10/05 10:29:36;;;;;;;5.47;3.85;;;16.90;99.90;;;;;;5006662;28;20049;-44
2022/10/05 10:32:09;;;;;;;7.22;4.10;;;16.90;99.90;;;;;;5031329;28;20065;-47
2022/10/05 10:35:12;;;;;;;8.30;3.95;;;16.90;99.90;;;;;;5046826;28;20057;-45
2022/10/05 10:38:16;;;;;;;6.13;4.15;;;16.90;99.90;;;;;;5050718;28;20088;-47
2022/10/05 10:40:51;;;;;;;7.78;4.25;;;16.90;99.90;;;;;;5051286;28;20060;-49
2022/10/05 10:43:28;;;;;;;4.22;3.72;;;16.90;99.90;;;;;;5067868;28;20056;-47
2022/10/05 10:45:57;;;;;;;4.90;3.80;;;16.90;99.90;;;;;;5068144;28;20107;-46
2022/10/05 10:48:50;;;;;;;4.93;3.65;;;16.90;99.90;;;;;;5051272;28;20114;-45
2022/10/05 10:51:19;;;;;;;4.70;3.65;;;16.90;99.90;;;;;;5029177;28;20132;-46
2022/10/05 10:54:22;;;;;;;6.47;4.00;;;16.90;99.90;;;;;;5045950;28;20075;-49
2022/10/05 10:56:58;;;;;;;5.25;3.70;;;17.00;99.90;;;;;;5052332;28;20132;-47
2022/10/05 11:00:01;;;;;;;5.53;3.70;;;16.90;99.90;;;;;;5066866;28;20048;-46
2022/10/05 11:02:42;;;;;;;5.25;3.47;;;17.00;99.90;;;;;;5052078;28;20405;-45
2022/10/05 11:05:25;;;;;;;4.57;3.90;;;17.00;99.90;;;;;;5051167;28;20053;-47
2022/10/05 11:08:09;;;;;;;6.03;3.28;;;17.10;99.90;;;;;;5051293;28;20057;-48
2022/10/05 11:10:53;;;;;;;4.45;3.40;;;17.20;99.90;;;;;;5052341;28;20071;-45
2022/10/05 11:13:32;;;;;;;7.20;3.63;;;17.30;99.90;;;;;;5058992;28;20053;-47
2022/10/05 11:16:27;;;;;;;6.63;3.40;;;17.30;99.90;;;;;;5060386;28;20049;-46
2022/10/05 11:19:37;;;;;;;6.45;3.83;;;17.30;99.90;;;;;;5030635;28;20131;-46
2022/10/05 11:22:13;;;;;;;5.78;3.33;;;17.40;99.90;;;;;;5025325;28;20148;-46
2022/10/05 11:24:49;;;;;;;7.22;3.78;;;17.40;99.90;;;;;;5064459;28;20133;-45
2022/10/05 11:27:46;;;;;;;5.85;3.22;;;17.40;99.90;;;;;;5071954;28;20101;-48
2022/10/05 11:30:40;;;;;;;9.27;3.08;;;17.50;99.90;;;;;;5072081;28;20049;-48
2022/10/05 11:33:34;;;;;;;4.95;3.20;;;17.50;99.90;;;;;;5069432;28;20137;-46
2022/10/05 11:36:42;;;;;;;6.65;3.22;;;17.50;99.90;;;;;;5060977;28;20044;-45
2022/10/05 11:39:37;;;;;;;9.13;3.13;;;17.50;99.90;;;;;;5073495;28;20071;-46
2022/10/05 11:42:51;;;;;;;7.40;2.78;;;17.50;99.90;;;;;;5075438;28;20137;-46
2022/10/05 11:45:35;;;;;;;3.70;2.78;;;17.50;99.90;;;;;;5033307;28;20053;-47
2022/10/05 11:48:26;;;;;;;5.53;2.60;;;17.50;99.90;;;;;;5016943;28;20465;-47
2022/10/05 11:51:08;;;;;;;10.25;4.32;;;17.50;99.90;;;;;;5042601;28;20458;-43
2022/10/05 11:53:37;;;;;;;10.23;3.92;;;17.50;99.90;;;;;;5055042;28;20049;-45
2022/10/05 11:56:07;;;;;;;6.95;3.30;;;17.50;99.90;;;;;;5070843;28;20044;-46
2022/10/05 11:58:35;;;;;;;5.72;2.97;;;17.50;99.90;;;;;;5055164;28;20128;-48
2022/10/05 12:01:05;;;;;;;6.20;3.20;;;17.50;99.90;;;;;;5055057;28;20056;-46
2022/10/05 12:03:46;;;;;;;6.80;2.95;;;17.50;99.90;;;;;;5054075;28;20477;-50
2022/10/05 12:06:22;;;;;;;6.40;3.13;;;17.60;99.90;;;;;;5054411;28;20141;-46
2022/10/05 12:08:56;;;;;;;4.43;2.70;;;17.50;99.90;;;;;;5052948;28;20493;-49
2022/10/05 12:11:35;;;;;;;5.15;2.78;;;17.60;99.90;;;;;;5054917;28;20049;-48
2022/10/05 12:14:03;;;;;;;8.60;3.50;;;17.60;99.90;;;;;;5053774;28;20057;-45
2022/10/05 12:16:34;;;;;;;5.65;2.90;;;17.60;99.90;;;;;;5054995;28;20052;-46
2022/10/05 12:19:03;;;;;;;4.70;3.03;;;17.50;99.90;;;;;;5070437;28;20049;-47
2022/10/05 12:21:35;;;;;;;7.43;3.22;;;17.60;99.90;;;;;;5054880;28;20084;-48
2022/10/05 12:24:04;;;;;;;10.45;3.42;;;17.60;99.90;;;;;;5070327;28;20096;-46
2022/10/05 12:26:34;;;;;;;6.88;2.95;;;17.60;99.90;;;;;;5051161;28;20073;-46
2022/10/05 12:29:02;;;;;;;8.98;3.17;;;17.60;99.90;;;;;;5051205;28;20045;-46
2022/10/05 12:31:39;;;;;;;5.78;3.42;;;17.60;99.90;;;;;;5054506;28;20118;-43
2022/10/05 12:34:11;;;;;;;7.38;3.30;;;17.60;99.90;;;;;;5052856;28;20501;-46
2022/10/05 12:36:39;;;;;;;9.30;3.42;;;17.60;99.90;;;;;;5051732;28;20045;-47
2022/10/05 12:39:11;;;;;;;8.20;2.92;;;17.60;99.90;;;;;;5048930;28;20049;-45
2022/10/05 12:41:39;;;;;;;;;;;17.60;99.90;;;;;;5069524;28;20099;-49
2022/10/05 12:44:12;;;;;;;6.75;3.08;;;17.60;99.90;;;;;;5053379;28;19924;-46
2022/10/05 12:46:43;;;;;;;7.07;3.70;;;17.50;99.90;;;;;;5049119;28;20056;-44
2022/10/05 12:49:23;;;;;;;7.10;3.45;;;17.60;99.90;;;;;;5050367;28;20084;-46
2022/10/05 12:51:52;;;;;;;10.63;3.20;;;17.60;99.90;;;;;;5051120;28;20053;-46
2022/10/05 12:54:22;;;;;;;7.63;3.50;;;17.60;99.90;;;;;;5053427;28;20072;-45
2022/10/05 12:56:52;;;;;;;8.45;3.50;;;17.60;99.90;;;;;;5067691;28;20084;-45
2022/10/05 12:59:26;;;;;;;7.13;3.65;;;17.70;99.90;;;;;;5052123;28;20049;-46
2022/10/05 13:01:57;;;;;;;6.85;3.40;;;17.70;99.90;;;;;;5050338;28;20057;-46
2022/10/05 13:04:30;;;;;;;8.57;4.10;;;17.80;99.90;;;;;;5049257;28;20095;-44
2022/10/05 13:07:10;;;;;;;5.05;3.33;;;17.70;99.90;;;;;;5054578;28;20049;-49
2022/10/05 13:09:39;;;;;;;6.43;3.60;;;17.80;99.90;;;;;;5051397;28;20041;-47
2022/10/05 13:12:08;;;;;;;4.03;3.40;;;17.90;99.90;;;;;;5050435;28;20087;-47
2022/10/05 13:14:43;;;;;;;10.40;3.72;;;17.80;99.90;;;;;;5054280;28;20639;-50
2022/10/05 13:17:14;;;;;;;6.20;3.33;;;17.90;99.90;;;;;;5049636;28;20473;-47
2022/10/05 13:19:43;;;;;;;8.43;3.38;;;17.90;99.90;;;;;;5051534;28;20080;-47
2022/10/05 13:22:16;;;;;;;8.32;3.08;;;18.00;99.90;;;;;;5049496;28;20065;-48
2022/10/05 13:24:46;;;;;;;7.75;3.30;;;18.00;99.90;;;;;;5048947;28;20049;-45